sensor_id;sensor_type;location;lat;lon;timestamp;pressure;altitude;pressure_sealevel;temperature;humidity
33404;BME280;19751;40.274;18.268;2023-01-04T00:00:18;102414.72;;;10.25;100.00
33404;BME280;19751;40.274;18.268;2023-01-04T00:02:44;102403.94;;;10.25;100.00
33404;BME280;19751;40.274;18.268;2023-01-04T00:05:09;102402.09;;;10.25;100.00
33404;BME280;19751;40.274;18.268;2023-01-04T00:07:35;102404.88;;;10.24;100.00
33404;BME280;19751;40.274;18.268;2023-01-04T00:10:00;102404.78;;;10.25;100.00
33404;BME280;19751;40.274;18.268;2023-01-04T00:12:26;102406.88;;;10.21;100.00
33404;BME280;19751;40.274;18.268;2023-01-04T00:14:51;102397.09;;;10.20;100.00
33404;BME280;19751;40.274;18.268;2023-01-04T00:17:16;102399.94;;;10.19;100.00
33404;BME280;19751;40.274;18.268;2023-01-04T00:19:42;102395.25;;;10.21;100.00
33404;BME280;19751;40.274;18.268;2023-01-04T00:22:07;102395.09;;;10.23;100.00
33404;BME280;19751;40.274;18.268;2023-01-04T00:24:32;102395.69;;;10.26;100.00
33404;BME280;19751;40.274;18.268;2023-01-04T00:26:58;102389.47;;;10.26;100.00
33404;BME280;19751;40.274;18.268;2023-01-04T00:29:23;102391.31;;;10.25;100.00
33404;BME280;19751;40.274;18.268;2023-01-04T00:31:48;102394.41;;;10.20;100.00
33404;BME280;19751;40.274;18.268;2023-01-04T00:34:14;102398.94;;;10.20;100.00
33404;BME280;19751;40.274;18.268;2023-01-04T00:36:40;102394.25;;;10.22;100.00
33404;BME280;19751;40.274;18.268;2023-01-04T00:39:05;102399.38;;;10.25;100.00
33404;BME280;19751;40.274;18.268;2023-01-04T00:41:47;102395.09;;;10.23;100.00
33404;BME280;19751;40.274;18.268;2023-01-04T00:44:13;102398.56;;;10.25;100.00
33404;BME280;19751;40.274;18.268;2023-01-04T00:46:39;102399.22;;;10.27;100.00
33404;BME280;19751;40.274;18.268;2023-01-04T00:49:05;102394.00;;;10.25;100.00
33404;BME280;19751;40.274;18.268;2023-01-04T00:51:31;102399.38;;;10.25;100.00
33404;BME280;19751;40.274;18.268;2023-01-04T00:53:58;102399.66;;;10.22;100.00
33404;BME280;19751;40.274;18.268;2023-01-04T00:56:24;102405.72;;;10.24;100.00
33404;BME280;19751;40.274;18.268;2023-01-04T00:58:52;102404.03;;;10.23;100.00
33404;BME280;19751;40.274;18.268;2023-01-04T01:01:17;102398.56;;;10.25;100.00
33404;BME280;19751;40.274;18.268;2023-01-04T01:03:42;102396.78;;;10.24;100.00
33404;BME280;19751;40.274;18.268;2023-01-04T01:06:08;102400.34;;;10.24;100.00
33404;BME280;19751;40.274;18.268;2023-01-04T01:08:33;102399.22;;;10.27;100.00
33404;BME280;19751;40.274;18.268;2023-01-04T01:11:03;102400.78;;;10.29;100.00
33404;BME280;19751;40.274;18.268;2023-01-04T01:13:29;102397.09;;;10.30;100.00
33404;BME280;19751;40.274;18.268;2023-01-04T01:15:54;102391.16;;;10.27;100.00
33404;BME280;19751;40.274;18.268;2023-01-04T01:18:20;102387.78;;;10.25;100.00
33404;BME280;19751;40.274;18.268;2023-01-04T01:20:45;102388.72;;;10.24;100.00
33404;BME280;19751;40.274;18.268;2023-01-04T01:23:14;102389.03;;;10.20;100.00
33404;BME280;19751;40.274;18.268;2023-01-04T01:25:40;102391.84;;;10.19;100.00
33404;BME280;19751;40.274;18.268;2023-01-04T01:28:06;102393.97;;;10.15;100.00
33404;BME280;19751;40.274;18.268;2023-01-04T01:30:31;102387.63;;;10.16;100.00
33404;BME280;19751;40.274;18.268;2023-01-04T01:32:57;102391.16;;;10.17;100.00
33404;BME280;19751;40.274;18.268;2023-01-04T01:35:22;102396.84;;;10.14;100.00
33404;BME280;19751;40.274;18.268;2023-01-04T01:37:47;102385.50;;;10.10;100.00
33404;BME280;19751;40.274;18.268;2023-01-04T01:40:13;102389.59;;;10.14;100.00
33404;BME280;19751;40.274;18.268;2023-01-04T01:42:38;102395.84;;;10.15;100.00
33404;BME280;19751;40.274;18.268;2023-01-04T01:45:04;102391.28;;;10.15;100.00
33404;BME280;19751;40.274;18.268;2023-01-04T01:47:44;102379.13;;;10.11;100.00
33404;BME280;19751;40.274;18.268;2023-01-04T01:50:30;102379.28;;;10.10;100.00
33404;BME280;19751;40.274;18.268;2023-01-04T01:52:57;102386.66;;;10.08;100.00
33404;BME280;19751;40.274;18.268;2023-01-04T01:55:24;102385.09;;;10.05;100.00
33404;BME280;19751;40.274;18.268;2023-01-04T01:57:50;102371.47;;;10.07;100.00
33404;BME280;19751;40.274;18.268;2023-01-04T02:00:17;102374.88;;;10.09;100.00
33404;BME280;19751;40.274;18.268;2023-01-04T02:02:48;102365.81;;;10.10;100.00
33404;BME280;19751;40.274;18.268;2023-01-04T02:05:16;102365.13;;;10.08;100.00
33404;BME280;19751;40.274;18.268;2023-01-04T02:07:42;102366.25;;;10.05;100.00
33404;BME280;19751;40.274;18.268;2023-01-04T02:10:08;102367.94;;;10.06;100.00
33404;BME280;19751;40.274;18.268;2023-01-04T02:12:33;102366.53;;;10.12;100.00
33404;BME280;19751;40.274;18.268;2023-01-04T02:14:59;102365.94;;;10.18;100.00
33404;BME280;19751;40.274;18.268;2023-01-04T02:17:31;102365.94;;;10.18;100.00
33404;BME280;19751;40.274;18.268;2023-01-04T02:20:20;102372.16;;;10.18;100.00
33404;BME280;19751;40.274;18.268;2023-01-04T02:33:32;102355.75;;;10.12;100.00
33404;BME280;19751;40.274;18.268;2023-01-04T02:38:54;102346.06;;;10.19;100.00
33404;BME280;19751;40.274;18.268;2023-01-04T02:41:32;102354.56;;;10.24;100.00
33404;BME280;19751;40.274;18.268;2023-01-04T02:44:15;102355.13;;;10.28;100.00
33404;BME280;19751;40.274;18.268;2023-01-04T02:50:22;102346.06;;;10.19;100.00
33404;BME280;19751;40.274;18.268;2023-01-04T02:53:04;102347.38;;;10.15;100.00
33404;BME280;19751;40.274;18.268;2023-01-04T03:04:11;102349.38;;;10.03;100.00
33404;BME280;19751;40.274;18.268;2023-01-04T03:07:17;102349.09;;;10.06;100.00
33404;BME280;19751;40.274;18.268;2023-01-04T03:09:45;102343.28;;;10.11;100.00
33404;BME280;19751;40.274;18.268;2023-01-04T03:12:14;102343.28;;;10.11;100.00
33404;BME280;19751;40.274;18.268;2023-01-04T03:15:18;102334.91;;;10.14;100.00
33404;BME280;19751;40.274;18.268;2023-01-04T03:17:44;102333.78;;;10.16;100.00
33404;BME280;19751;40.274;18.268;2023-01-04T03:20:11;102335.91;;;10.13;100.00
33404;BME280;19751;40.274;18.268;2023-01-04T03:22:46;102330.53;;;10.13;100.00
33404;BME280;19751;40.274;18.268;2023-01-04T03:25:35;102324.75;;;10.08;100.00
33404;BME280;19751;40.274;18.268;2023-01-04T03:28:22;102322.34;;;10.05;100.00
33404;BME280;19751;40.274;18.268;2023-01-04T03:33:56;102313.31;;;9.96;100.00
33404;BME280;19751;40.274;18.268;2023-01-04T03:36:45;102312.34;;;9.87;100.00
33404;BME280;19751;40.274;18.268;2023-01-04T03:39:17;102313.31;;;9.86;100.00
33404;BME280;19751;40.274;18.268;2023-01-04T03:42:09;102318.69;;;9.86;100.00
33404;BME280;19751;40.274;18.268;2023-01-04T03:47:53;102320.69;;;9.84;100.00
33404;BME280;19751;40.274;18.268;2023-01-04T03:50:40;102315.59;;;9.81;100.00
33404;BME280;19751;40.274;18.268;2023-01-04T03:53:09;102311.06;;;9.82;100.00
33404;BME280;19751;40.274;18.268;2023-01-04T03:55:36;102319.44;;;9.79;100.00
33404;BME280;19751;40.274;18.268;2023-01-04T03:58:02;102317.03;;;9.76;100.00
33404;BME280;19751;40.274;18.268;2023-01-04T04:00:27;102319.72;;;9.76;100.00
33404;BME280;19751;40.274;18.268;2023-01-04T04:02:53;102316.88;;;9.77;100.00
33404;BME280;19751;40.274;18.268;2023-01-04T04:05:20;102329.66;;;9.75;100.00
33404;BME280;19751;40.274;18.268;2023-01-04T04:08:05;102326.25;;;9.73;100.00
33404;BME280;19751;40.274;18.268;2023-01-04T04:10:50;102321.88;;;9.72;100.00
33404;BME280;19751;40.274;18.268;2023-01-04T04:13:16;102310.81;;;9.75;100.00
33404;BME280;19751;40.274;18.268;2023-01-04T04:15:41;102314.34;;;9.76;100.00
33404;BME280;19751;40.274;18.268;2023-01-04T04:18:07;102321.25;;;9.78;100.00
33404;BME280;19751;40.274;18.268;2023-01-04T04:20:32;102316.75;;;9.79;100.00
33404;BME280;19751;40.274;18.268;2023-01-04T04:22:57;102313.91;;;9.80;100.00
33404;BME280;19751;40.274;18.268;2023-01-04T04:25:23;102310.50;;;9.78;100.00
33404;BME280;19751;40.274;18.268;2023-01-04T04:27:48;102311.50;;;9.77;100.00
33404;BME280;19751;40.274;18.268;2023-01-04T04:30:14;102308.81;;;9.77;100.00
33404;BME280;19751;40.274;18.268;2023-01-04T04:32:39;102310.94;;;9.83;100.00
33404;BME280;19751;40.274;18.268;2023-01-04T04:35:04;102308.25;;;9.83;100.00
33404;BME280;19751;40.274;18.268;2023-01-04T04:37:30;102309.22;;;9.82;100.00
33404;BME280;19751;40.274;18.268;2023-01-04T04:39:56;102311.06;;;9.82;100.00
33404;BME280;19751;40.274;18.268;2023-01-04T04:42:22;102304.84;;;9.81;100.00
33404;BME280;19751;40.274;18.268;2023-01-04T04:44:47;102310.22;;;9.81;100.00
33404;BME280;19751;40.274;18.268;2023-01-04T04:47:12;102301.13;;;9.82;100.00
33404;BME280;19751;40.274;18.268;2023-01-04T04:49:38;102307.25;;;9.84;100.00
33404;BME280;19751;40.274;18.268;2023-01-04T04:52:03;102300.69;;;9.87;100.00
33404;BME280;19751;40.274;18.268;2023-01-04T04:54:28;102298.16;;;9.85;100.00
33404;BME280;19751;40.274;18.268;2023-01-04T04:56:54;102305.25;;;9.86;100.00
33404;BME280;19751;40.274;18.268;2023-01-04T04:59:19;102304.25;;;9.87;100.00
33404;BME280;19751;40.274;18.268;2023-01-04T05:01:44;102305.94;;;9.88;100.00
33404;BME280;19751;40.274;18.268;2023-01-04T05:04:10;102310.34;;;9.89;100.00
33404;BME280;19751;40.274;18.268;2023-01-04T05:06:40;102321.09;;;9.89;100.00
33404;BME280;19751;40.274;18.268;2023-01-04T05:09:06;102315.88;;;9.88;100.00
33404;BME280;19751;40.274;18.268;2023-01-04T05:11:31;102321.25;;;9.88;100.00
33404;BME280;19751;40.274;18.268;2023-01-04T05:14:16;102321.09;;;9.89;100.00
33404;BME280;19751;40.274;18.268;2023-01-04T05:16:41;102318.69;;;9.86;100.00
33404;BME280;19751;40.274;18.268;2023-01-04T05:19:06;102317.00;;;9.85;100.00
33404;BME280;19751;40.274;18.268;2023-01-04T05:21:32;102319.97;;;9.82;100.00
33404;BME280;19751;40.274;18.268;2023-01-04T05:23:57;102320.69;;;9.84;100.00
33404;BME280;19751;40.274;18.268;2023-01-04T05:26:22;102320.69;;;9.84;100.00
33404;BME280;19751;40.274;18.268;2023-01-04T05:28:48;102315.16;;;9.86;100.00
33404;BME280;19751;40.274;18.268;2023-01-04T05:31:13;102321.69;;;9.83;100.00
33404;BME280;19751;40.274;18.268;2023-01-04T05:33:38;102323.66;;;9.81;100.00
33404;BME280;19751;40.274;18.268;2023-01-04T05:36:04;102320.13;;;9.81;100.00
33404;BME280;19751;40.274;18.268;2023-01-04T05:38:29;102322.13;;;9.79;100.00
33404;BME280;19751;40.274;18.268;2023-01-04T05:40:55;102319.28;;;9.80;100.00
33404;BME280;19751;40.274;18.268;2023-01-04T05:43:20;102319.56;;;9.77;100.00
33404;BME280;19751;40.274;18.268;2023-01-04T05:45:50;102325.25;;;9.74;100.00
33404;BME280;19751;40.274;18.268;2023-01-04T05:48:16;102332.03;;;9.78;100.00
33404;BME280;19751;40.274;18.268;2023-01-04T05:50:41;102334.59;;;9.80;100.00
33404;BME280;19751;40.274;18.268;2023-01-04T05:53:07;102334.16;;;9.84;100.00
33404;BME280;19751;40.274;18.268;2023-01-04T05:55:33;102334.72;;;9.88;100.00
33404;BME280;19751;40.274;18.268;2023-01-04T05:57:58;102324.63;;;9.90;100.00
33404;BME280;19751;40.274;18.268;2023-01-04T06:00:24;102334.13;;;9.94;100.00
33404;BME280;19751;40.274;18.268;2023-01-04T06:02:50;102327.88;;;9.93;100.00
33404;BME280;19751;40.274;18.268;2023-01-04T06:05:16;102332.28;;;9.94;100.00
33404;BME280;19751;40.274;18.268;2023-01-04T06:07:42;102329.13;;;9.99;100.00
33404;BME280;19751;40.274;18.268;2023-01-04T06:10:08;102330.41;;;10.05;100.00
33404;BME280;19751;40.274;18.268;2023-01-04T06:12:34;102335.06;;;10.12;100.00
33404;BME280;19751;40.274;18.268;2023-01-04T06:14:59;102338.84;;;10.19;100.00
33404;BME280;19751;40.274;18.268;2023-01-04T06:17:25;102337.00;;;10.20;100.00
33404;BME280;19751;40.274;18.268;2023-01-04T06:19:50;102338.84;;;10.19;100.00
33404;BME280;19751;40.274;18.268;2023-01-04T06:22:15;102344.66;;;10.15;100.00
33404;BME280;19751;40.274;18.268;2023-01-04T06:24:41;102342.13;;;10.13;100.00
33404;BME280;19751;40.274;18.268;2023-01-04T06:27:06;102340.72;;;10.09;100.00
33404;BME280;19751;40.274;18.268;2023-01-04T06:29:31;102344.44;;;10.08;100.00
33404;BME280;19751;40.274;18.268;2023-01-04T06:31:56;102345.41;;;10.07;100.00
33404;BME280;19751;40.274;18.268;2023-01-04T06:34:22;102345.28;;;10.09;100.00
33404;BME280;19751;40.274;18.268;2023-01-04T06:36:47;102351.22;;;10.12;100.00
33404;BME280;19751;40.274;18.268;2023-01-04T06:39:12;102351.91;;;10.14;100.00
33404;BME280;19751;40.274;18.268;2023-01-04T06:41:38;102349.78;;;10.18;100.00
33404;BME280;19751;40.274;18.268;2023-01-04T06:44:03;102358.69;;;10.18;100.00
33404;BME280;19751;40.274;18.268;2023-01-04T06:46:28;102359.25;;;10.22;100.00
33404;BME280;19751;40.274;18.268;2023-01-04T06:48:54;102357.41;;;10.23;100.00
33404;BME280;19751;40.274;18.268;2023-01-04T06:51:20;102360.69;;;10.26;100.00
33404;BME280;19751;40.274;18.268;2023-01-04T06:53:45;102361.38;;;10.28;100.00
33404;BME280;19751;40.274;18.268;2023-01-04T06:56:10;102361.94;;;10.32;100.00
33404;BME280;19751;40.274;18.268;2023-01-04T06:58:36;102361.47;;;10.36;100.00
33404;BME280;19751;40.274;18.268;2023-01-04T07:01:01;102367.28;;;10.41;100.00
33404;BME280;19751;40.274;18.268;2023-01-04T07:03:27;102359.91;;;10.43;100.00
33404;BME280;19751;40.274;18.268;2023-01-04T07:05:52;102362.47;;;10.45;100.00
33404;BME280;19751;40.274;18.268;2023-01-04T07:08:17;102364.00;;;10.48;100.00
33404;BME280;19751;40.274;18.268;2023-01-04T07:10:43;102364.38;;;10.53;100.00
33404;BME280;19751;40.274;18.268;2023-01-04T07:13:08;102370.47;;;10.55;100.00
33404;BME280;19751;40.274;18.268;2023-01-04T07:15:34;102365.50;;;10.60;100.00
33404;BME280;19751;40.274;18.268;2023-01-04T07:17:59;102366.03;;;10.63;100.00
33404;BME280;19751;40.274;18.268;2023-01-04T07:20:25;102373.66;;;10.68;100.00
33404;BME280;19751;40.274;18.268;2023-01-04T07:22:50;102358.91;;;10.72;100.00
33404;BME280;19751;40.274;18.268;2023-01-04T07:25:16;102362.81;;;10.78;100.00
33404;BME280;19751;40.274;18.268;2023-01-04T07:27:41;102360.53;;;10.83;100.00
33404;BME280;19751;40.274;18.268;2023-01-04T07:30:06;102361.22;;;10.85;100.00
33404;BME280;19751;40.274;18.268;2023-01-04T07:32:32;102356.22;;;10.90;100.00
33404;BME280;19751;40.274;18.268;2023-01-04T07:34:57;102360.47;;;10.92;100.00
33404;BME280;19751;40.274;18.268;2023-01-04T07:37:23;102365.41;;;10.97;100.00
33404;BME280;19751;40.274;18.268;2023-01-04T07:39:48;102358.88;;;11.00;100.00
33404;BME280;19751;40.274;18.268;2023-01-04T07:42:13;102367.81;;;11.00;100.00
33404;BME280;19751;40.274;18.268;2023-01-04T07:44:39;102368.34;;;11.04;100.00
33404;BME280;19751;40.274;18.268;2023-01-04T07:47:04;102372.72;;;11.05;100.00
33404;BME280;19751;40.274;18.268;2023-01-04T07:49:29;102364.34;;;11.08;100.00
33404;BME280;19751;40.274;18.268;2023-01-04T07:51:55;102372.28;;;11.09;100.00
33404;BME280;19751;40.274;18.268;2023-01-04T07:54:20;102372.81;;;11.13;100.00
33404;BME280;19751;40.274;18.268;2023-01-04T07:56:48;102377.59;;;11.19;100.00
33404;BME280;19751;40.274;18.268;2023-01-04T07:59:13;102380.28;;;11.19;100.00
33404;BME280;19751;40.274;18.268;2023-01-04T08:01:39;102375.31;;;11.24;100.00
33404;BME280;19751;40.274;18.268;2023-01-04T08:04:06;102371.81;;;11.32;100.00
33404;BME280;19751;40.274;18.268;2023-01-04T08:06:31;102370.66;;;11.34;100.00
33404;BME280;19751;40.274;18.268;2023-01-04T08:08:57;102375.44;;;11.40;100.00
33404;BME280;19751;40.274;18.268;2023-01-04T08:11:23;102368.72;;;11.44;100.00
33404;BME280;19751;40.274;18.268;2023-01-04T08:13:49;102372.66;;;11.50;100.00
33404;BME280;19751;40.274;18.268;2023-01-04T08:16:19;102377.41;;;11.56;100.00
33404;BME280;19751;40.274;18.268;2023-01-04T08:18:45;102375.25;;;11.60;100.00
33404;BME280;19751;40.274;18.268;2023-01-04T08:21:10;102378.31;;;11.65;100.00
33404;BME280;19751;40.274;18.268;2023-01-04T08:23:36;102372.63;;;11.68;100.00
33404;BME280;19751;40.274;18.268;2023-01-04T08:26:05;102380.59;;;11.69;100.00
33404;BME280;19751;40.274;18.268;2023-01-04T08:28:31;102385.09;;;11.69;100.00
33404;BME280;19751;40.274;18.268;2023-01-04T08:30:56;102377.72;;;11.71;100.00
33404;BME280;19751;40.274;18.268;2023-01-04T08:33:22;102379.09;;;11.75;100.00
33404;BME280;19751;40.274;18.268;2023-01-04T08:35:47;102376.75;;;11.80;100.00
33404;BME280;19751;40.274;18.268;2023-01-04T08:38:13;102377.34;;;11.84;100.00
33404;BME280;19751;40.274;18.268;2023-01-04T08:40:38;102377.03;;;11.87;100.00
33404;BME280;19751;40.274;18.268;2023-01-04T08:43:03;102375.72;;;11.91;100.00
33404;BME280;19751;40.274;18.268;2023-01-04T08:45:28;102375.53;;;11.92;100.00
33404;BME280;19751;40.274;18.268;2023-01-04T08:47:54;102381.16;;;11.99;100.00
33404;BME280;19751;40.274;18.268;2023-01-04T08:50:20;102376.97;;;12.05;100.00
33404;BME280;19751;40.274;18.268;2023-01-04T08:52:46;102379.34;;;12.08;100.00
33404;BME280;19751;40.274;18.268;2023-01-04T08:55:11;102380.75;;;12.12;100.00
33404;BME280;19751;40.274;18.268;2023-01-04T08:57:36;102371.44;;;12.14;100.00
33404;BME280;19751;40.274;18.268;2023-01-04T09:00:02;102369.28;;;12.18;100.00
33404;BME280;19751;40.274;18.268;2023-01-04T09:02:28;102369.97;;;12.20;100.00
33404;BME280;19751;40.274;18.268;2023-01-04T09:04:53;102374.06;;;12.24;100.00
33404;BME280;19751;40.274;18.268;2023-01-04T09:07:24;102373.41;;;12.30;100.00
33404;BME280;19751;40.274;18.268;2023-01-04T09:09:49;102365.81;;;12.34;100.00
33404;BME280;19751;40.274;18.268;2023-01-04T09:12:14;102359.94;;;12.38;100.00
33404;BME280;19751;40.274;18.268;2023-01-04T09:14:40;102365.53;;;12.45;100.00
33404;BME280;19751;40.274;18.268;2023-01-04T09:17:05;102360.66;;;12.49;100.00
33404;BME280;19751;40.274;18.268;2023-01-04T09:19:30;102356.63;;;12.53;100.00
33404;BME280;19751;40.274;18.268;2023-01-04T09:21:56;102355.13;;;12.58;100.00
33404;BME280;19751;40.274;18.268;2023-01-04T09:24:22;102345.50;;;12.64;100.00
33404;BME280;19751;40.274;18.268;2023-01-04T09:26:47;102348.72;;;12.67;100.00
33404;BME280;19751;40.274;18.268;2023-01-04T09:29:13;102355.66;;;12.70;100.00
33404;BME280;19751;40.274;18.268;2023-01-04T09:31:38;102348.41;;;12.71;100.00
33404;BME280;19751;40.274;18.268;2023-01-04T09:34:03;102345.53;;;12.72;100.00
33404;BME280;19751;40.274;18.268;2023-01-04T09:36:29;102351.78;;;12.73;100.00
33404;BME280;19751;40.274;18.268;2023-01-04T09:38:54;102345.19;;;12.75;100.00
33404;BME280;19751;40.274;18.268;2023-01-04T09:46:19;102341.34;;;12.78;100.00
33404;BME280;19751;40.274;18.268;2023-01-04T09:48:47;102343.03;;;12.79;100.00
33404;BME280;19751;40.274;18.268;2023-01-04T09:51:16;102336.59;;;12.80;100.00
33404;BME280;19751;40.274;18.268;2023-01-04T09:53:44;102339.13;;;12.81;100.00
33404;BME280;19751;40.274;18.268;2023-01-04T09:58:42;102333.25;;;12.86;100.00
33404;BME280;19751;40.274;18.268;2023-01-04T10:01:19;102330.53;;;12.86;100.00
33404;BME280;19751;40.274;18.268;2023-01-04T10:03:52;102333.06;;;12.87;100.00
33404;BME280;19751;40.274;18.268;2023-01-04T10:06:19;102333.06;;;12.87;100.00
33404;BME280;19751;40.274;18.268;2023-01-04T10:08:44;102323.94;;;12.88;100.00
33404;BME280;19751;40.274;18.268;2023-01-04T10:11:25;102318.38;;;12.90;100.00
33404;BME280;19751;40.274;18.268;2023-01-04T10:26:43;102311.13;;;13.15;100.00
33404;BME280;19751;40.274;18.268;2023-01-04T10:29:29;102305.75;;;13.23;100.00
33404;BME280;19751;40.274;18.268;2023-01-04T10:34:29;102296.28;;;13.35;100.00
33404;BME280;19751;40.274;18.268;2023-01-04T10:37:00;102300.31;;;13.39;100.00
33404;BME280;19751;40.274;18.268;2023-01-04T10:39:29;102306.25;;;13.43;100.00
33404;BME280;19751;40.274;18.268;2023-01-04T10:41:56;102303.03;;;13.48;100.00
33404;BME280;19751;40.274;18.268;2023-01-04T10:44:43;102301.66;;;13.52;100.00
33404;BME280;19751;40.274;18.268;2023-01-04T10:49:58;102295.06;;;13.62;100.00
33404;BME280;19751;40.274;18.268;2023-01-04T10:53:00;102286.75;;;13.64;100.00
33404;BME280;19751;40.274;18.268;2023-01-04T10:55:24;102287.25;;;13.67;100.00
33404;BME280;19751;40.274;18.268;2023-01-04T10:57:53;102282.34;;;13.71;100.00
33404;BME280;19751;40.274;18.268;2023-01-04T11:00:23;102277.44;;;13.75;100.00
33404;BME280;19751;40.274;18.268;2023-01-04T11:02:57;102287.56;;;13.81;100.00
33404;BME280;19751;40.274;18.268;2023-01-04T11:10:30;102274.88;;;13.89;100.00
33404;BME280;19751;40.274;18.268;2023-01-04T11:13:00;102273.66;;;13.92;100.00
33404;BME280;19751;40.274;18.268;2023-01-04T11:15:25;102266.53;;;13.99;100.00
33404;BME280;19751;40.274;18.268;2023-01-04T11:17:51;102261.97;;;14.00;100.00
33404;BME280;19751;40.274;18.268;2023-01-04T11:20:16;102265.50;;;14.00;100.00
33404;BME280;19751;40.274;18.268;2023-01-04T11:22:57;102264.66;;;14.00;100.00
33404;BME280;19751;40.274;18.268;2023-01-04T11:25:23;102255.16;;;14.04;100.00
33404;BME280;19751;40.274;18.268;2023-01-04T11:27:51;102248.56;;;14.06;100.00
33404;BME280;19751;40.274;18.268;2023-01-04T11:30:23;102250.91;;;14.09;100.00
33404;BME280;19751;40.274;18.268;2023-01-04T11:32:57;102250.06;;;14.09;100.00
33404;BME280;19751;40.274;18.268;2023-01-04T11:38:12;102250.75;;;14.11;100.00
33404;BME280;19751;40.274;18.268;2023-01-04T11:40:38;102226.66;;;14.16;100.00
33404;BME280;19751;40.274;18.268;2023-01-04T11:43:18;102233.44;;;14.20;100.00
33404;BME280;19751;40.274;18.268;2023-01-04T11:48:42;102229.00;;;14.27;100.00
33404;BME280;19751;40.274;18.268;2023-01-04T11:51:15;102225.59;;;14.25;100.00
33404;BME280;19751;40.274;18.268;2023-01-04T11:53:41;102226.63;;;14.24;100.00
33404;BME280;19751;40.274;18.268;2023-01-04T11:58:32;102219.53;;;14.23;100.00
33404;BME280;19751;40.274;18.268;2023-01-04T12:00:57;102213.72;;;14.26;100.00
33404;BME280;19751;40.274;18.268;2023-01-04T12:05:53;102212.69;;;14.35;100.00
33404;BME280;19751;40.274;18.268;2023-01-04T12:10:44;102205.50;;;14.42;100.00
33404;BME280;19751;40.274;18.268;2023-01-04T12:13:10;102211.75;;;14.43;100.00
33404;BME280;19751;40.274;18.268;2023-01-04T12:15:38;102208.06;;;14.44;100.00
33404;BME280;19751;40.274;18.268;2023-01-04T12:18:09;102205.84;;;14.48;100.00
33404;BME280;19751;40.274;18.268;2023-01-04T12:20:39;102199.53;;;14.47;100.00
33404;BME280;19751;40.274;18.268;2023-01-04T12:23:05;102207.66;;;14.47;100.00
33404;BME280;19751;40.274;18.268;2023-01-04T12:25:40;102199.53;;;14.47;100.00
33404;BME280;19751;40.274;18.268;2023-01-04T12:30:53;102218.50;;;14.47;100.00
33404;BME280;19751;40.274;18.268;2023-01-04T12:41:12;102205.81;;;14.56;100.00
33404;BME280;19751;40.274;18.268;2023-01-04T12:43:37;102196.81;;;14.55;100.00
33404;BME280;19751;40.274;18.268;2023-01-04T12:52:10;102200.84;;;14.59;100.00
33404;BME280;19751;40.274;18.268;2023-01-04T12:54:45;102195.91;;;14.63;100.00
33404;BME280;19751;40.274;18.268;2023-01-04T13:02:21;102199.66;;;14.62;100.00
33404;BME280;19751;40.274;18.268;2023-01-04T13:04:46;102193.19;;;14.63;100.00
33404;BME280;19751;40.274;18.268;2023-01-04T13:07:17;102198.47;;;14.64;100.00
33404;BME280;19751;40.274;18.268;2023-01-04T13:09:45;102194.22;;;14.62;100.00
33404;BME280;19751;40.274;18.268;2023-01-04T13:12:24;102194.97;;;14.56;100.00
33404;BME280;19751;40.274;18.268;2023-01-04T13:14:57;102195.81;;;14.56;100.00
33404;BME280;19751;40.274;18.268;2023-01-04T13:17:25;102194.97;;;14.56;100.00
33404;BME280;19751;40.274;18.268;2023-01-04T13:19:51;102197.84;;;14.54;100.00
33404;BME280;19751;40.274;18.268;2023-01-04T13:22:27;102199.72;;;14.54;100.00
33404;BME280;19751;40.274;18.268;2023-01-04T13:24:53;102190.25;;;14.50;100.00
33404;BME280;19751;40.274;18.268;2023-01-04T13:27:21;102200.41;;;14.48;100.00
33404;BME280;19751;40.274;18.268;2023-01-04T13:29:47;102194.31;;;14.46;100.00
33404;BME280;19751;40.274;18.268;2023-01-04T13:39:35;102191.78;;;14.44;100.00
33404;BME280;19751;40.274;18.268;2023-01-04T13:42:00;102197.22;;;14.44;100.00
33404;BME280;19751;40.274;18.268;2023-01-04T13:46:57;102196.38;;;14.43;100.00
33404;BME280;19751;40.274;18.268;2023-01-04T13:49:24;102194.66;;;14.42;100.00
33404;BME280;19751;40.274;18.268;2023-01-04T13:51:50;102194.84;;;14.41;100.00
33404;BME280;19751;40.274;18.268;2023-01-04T13:54:17;102189.63;;;14.39;100.00
33404;BME280;19751;40.274;18.268;2023-01-04T13:56:43;102192.97;;;14.41;100.00
33404;BME280;19751;40.274;18.268;2023-01-04T13:59:08;102197.56;;;14.41;100.00
33404;BME280;19751;40.274;18.268;2023-01-04T14:01:35;102192.97;;;14.41;100.00
33404;BME280;19751;40.274;18.268;2023-01-04T14:04:05;102197.75;;;14.39;100.00
33404;BME280;19751;40.274;18.268;2023-01-04T14:06:32;102199.44;;;14.40;100.00
33404;BME280;19751;40.274;18.268;2023-01-04T14:11:32;102200.28;;;14.41;100.00
33404;BME280;19751;40.274;18.268;2023-01-04T14:16:41;102199.97;;;14.36;100.00
33404;BME280;19751;40.274;18.268;2023-01-04T14:21:51;102196.97;;;14.31;100.00
33404;BME280;19751;40.274;18.268;2023-01-04T14:24:32;102191.88;;;14.28;100.00
33404;BME280;19751;40.274;18.268;2023-01-04T14:26:57;102199.34;;;14.26;100.00
33404;BME280;19751;40.274;18.268;2023-01-04T14:29:28;102186.81;;;14.25;100.00
33404;BME280;19751;40.274;18.268;2023-01-04T14:31:54;102194.28;;;14.23;100.00